Weather observations for the past three days for
Blairsville Airport
Metric (Imperial)
Date Time (edt) Wind (kph) Vis. (km) Weather Sky Cond. Temperature (ºC) Relative Humidity Wind Chill (°C) Heat Index (°C) Pressure Precipitation (cm)
Air Dwpt 6 hour altimeter (cm) sea level (mb) 1 hr 3 hr 6 hr
Max. Min.
04 20:35 Calm 16.09 Fair CLR 18.6 6.3 45% 76.17 0.0
04 20:15 S 7 16.09 Fair CLR 19.6 6.3 42% 76.17 0.0
04 19:55 S 13 16.09 Fair CLR 20.3 6.5 24.1 20.2 41% 76.17 0.0
04 19:35 SW 11 16.09 Fair CLR 20.9 7 41% 76.15 0.0
04 19:15 S 11 16.09 Fair CLR 21.2 7 40% 76.12 0.0
04 18:55 SW 11 16.09 Fair CLR 22.3 6.5 36% 76.12 0.0
04 18:35 S 15 16.09 Fair CLR 22.5 6.9 37% 76.15 0.0
04 18:15 SW 13 16.09 Fair CLR 22.9 7.5 37% 76.12 0.0
04 17:55 SW 9 16.09 Fair CLR 23 6.2 34% 76.12 0.0
04 17:35 W 7 16.09 Fair CLR 23.6 6.4 33% 76.1 0.0
04 17:15 W 9 16.09 Fair CLR 23.8 4.4 28% 76.1 0.0
04 16:55 SW 7 16.09 Fair CLR 23.5 6.4 33% 76.12 0.0
04 16:35 S 9 16.09 Fair CLR 23.2 6.9 35% 76.12 0.0
04 16:15 SE 6 16.09 Partly Cloudy SCT070 23.1 7.2 36% 76.12 0.0
04 15:55 E 11 16.09 Partly Cloudy SCT070 23.4 7.8 37% 76.15 0.0
04 15:35 Calm 16.09 Fair CLR 23.2 6.8 35% 76.17 0.0
04 15:15 S 9 16.09 Fair CLR 23.1 6.7 35% 76.17 0.0
04 14:55 NW 9 16.09 Fair CLR 23.4 7.7 37% 76.2 0.0
04 14:35 Calm 16.09 Fair CLR 22.4 6.3 35% 76.23 0.0
04 14:15 W 7 16.09 Fair CLR 21.6 6.2 37% 76.25 0.0
04 13:55 E 11 16.09 Fair CLR 22 7.5 22.5 3.9 39% 76.28 0.0
04 13:35 W 9 16.09 Fair CLR 21.6 8.1 42% 76.3 0.0
04 13:15 Calm 16.09 Fair CLR 21 8.7 45% 76.33 0.0
04 12:55 Calm 16.09 Fair CLR 20.9 7.8 43% 76.33 0.0
04 12:35 S 6 16.09 Fair CLR 19.9 7.2 44% 76.35 0.0
04 12:15 N 7 16.09 Fair CLR 19.4 7.4 46% 76.38 0.0
04 11:55 E 7 16.09 Fair CLR 18.9 6.5 45% 76.4 0.0
04 11:35 NE 9 16.09 Fair CLR 18.1 5.6 44% 76.43 0.0
04 11:15 NE 7 16.09 Fair CLR 17.6 5.9 46% 76.43 0.0
04 10:55 Calm 16.09 Fair CLR 16.4 5.8 50% 76.45 0.0
04 10:35 Calm 16.09 Fair CLR 15.9 5.8 51% 76.45 0.0
04 10:15 E 6 16.09 Fair CLR 14.1 5.7 57% 76.45 0.0
04 09:55 Calm 16.09 Fair CLR 12.7 5.6 62% 76.45 0.0
04 09:35 Calm 16.09 Fair CLR 11 5.7 70% 76.45 0.0
04 09:15 Calm 16.09 Fair CLR 9.5 5.2 75% 76.45 0.0
04 08:55 Calm 16.09 Fair CLR 8.5 5.2 80% 76.45 0.0
04 08:35 Calm 16.09 Fair CLR 6.6 4.7 88% 76.45 0.0
04 07:55 Calm 16.09 Fair CLR 3.8 3.3 4.3 1.8 97% 76.43 0.0
04 07:35 Calm 11.27 Fair CLR 3.1 3 99% 76.43 0.0
04 07:15 Calm 11.27 Fair CLR 2.2 2.2 100% 76.43 0.0
04 06:55 Calm 11.27 Fog/Mist CLR 1.9 1.9 100% 76.43 0.0
04 06:35 Calm 11.27 Fair CLR 1.8 1.8 100% 76.43 0.0
04 06:15 Calm 11.27 Fair CLR 1.9 1.8 99% 76.43 0.0
04 05:55 Calm 11.27 Fair CLR 2.1 2 99% 76.4 0.0
04 05:35 Calm 16.09 Fair CLR 2.4 2.3 99% 76.43 0.0
04 05:15 Calm 11.27 Fair CLR 2.3 2.2 99% 76.43 0.0
04 04:55 Calm 16.09 Fair CLR 2.7 2.5 99% 76.43 0.0
04 04:35 Calm 11.27 Fair CLR 2.4 2.3 99% 76.4 0.0
04 04:15 Calm 0.00 NULL NULL 2.7 2.6 99% 76.4 0.0
04 03:35 Calm 16.09 Fair CLR 3 2.7 98% 76.4 0.0
04 03:15 Calm 16.09 Fair CLR 3.4 3.1 98% 76.43 0.0
04 02:55 Calm 16.09 Fair CLR 3.7 3.5 99% 76.43 0.0
04 02:35 Calm 16.09 Fair CLR 3.7 3.3 97% 76.43 0.0
04 02:15 Calm 16.09 Fair CLR 4.1 3.6 97% 76.43 0.0
04 01:55 Calm 16.09 Fair CLR 4.3 3.8 15.1 4 97% 76.45 0.0
04 01:35 Calm 16.09 Fair CLR 4.1 3.5 96% 76.45 0.0
04 01:15 Calm 16.09 Fair CLR 4.8 3.9 94% 76.48 0.0
04 00:55 Calm 16.09 Fair CLR 4.8 3.9 94% 76.45 0.0
04 00:35 Calm 16.09 Fair CLR 5.3 4 91% 76.45 0.0
04 00:15 Calm 16.09 Fair CLR 5.4 3.9 90% 76.43 0.0
03 23:55 Calm 16.09 Fair CLR 5.9 3.9 87% 76.43 0.0
03 23:35 Calm 16.09 Fair CLR 6.4 3.8 84% 76.4 0.0
03 23:15 Calm 16.09 Fair CLR 7.1 3.8 80% 76.43 0.0
03 22:55 Calm 16.09 Fair CLR 7.7 4 78% 76.43 0.0
03 22:35 Calm 16.09 Fair CLR 7.6 4 78% 76.43 0.0
03 22:15 Calm 16.09 Fair CLR 8.5 3.7 72% 76.4 0.0
03 21:55 S 6 16.09 Fair CLR 9.1 3.5 68% 76.4 0.0
03 21:35 S 7 16.09 Fair CLR 9.5 3.2 65% 9 76.4 0.0
03 21:15 Calm 16.09 Fair CLR 10.3 3.1 61% 76.38 0.0
03 20:55 SW 6 16.09 Fair CLR 11.4 2.9 56% 76.35 0.0
03 20:35 Calm 16.09 Fair CLR 13 1.3 45% 76.35 0.0
03 20:15 Calm 16.09 Fair CLR 14.7 0.8 39% 76.33 0.0
03 19:55 Calm 16.09 Fair CLR 15 1 19.6 14.7 39% 76.33 0.0
03 19:35 NW 7 16.09 Fair CLR 16.2 0.9 36% 76.33 0.0
03 19:15 Calm 16.09 Fair CLR 16.9 1.6 36% 76.33 0.0
03 18:55 N 6 16.09 Fair CLR 17.7 1.1 33% 76.33 0.0
03 18:35 NW 6 16.09 Fair CLR 18.1 0.6 31% 76.33 0.0
03 18:15 NW 11 16.09 Fair CLR 18.4 0.2 29% 76.3 0.0
03 17:55 N 9 16.09 Fair CLR 18.8 0.8 30% 76.33 0.0
03 17:35 NW 9 16.09 Fair CLR 19 2 32% 76.33 0.0
03 17:15 NW 11 16.09 Fair CLR 18.5 0.9 31% 76.35 0.0
03 16:55 N 9 16.09 Fair CLR 19.1 1.2 30% 76.35 0.0
03 16:35 NE 15 16.09 Fair CLR 18.9 -0.6 27% 76.35 0.0
03 16:15 NW 9 16.09 Fair CLR 18.7 0.4 29% 76.4 0.0
03 15:55 NW 7 16.09 Fair CLR 18.3 -0.3 29% 76.43 0.0
03 15:35 SW 13 16.09 Fair CLR 17.8 -0.7 29% 76.43 0.0
03 15:15 W 11 16.09 Fair CLR 17.9 0.4 31% 76.45 0.0
03 14:55 W 7 16.09 Fair CLR 17.5 1.1 33% 76.48 0.0
03 14:35 W 11 16.09 Fair CLR 17.1 0.8 33% 76.48 0.0
03 14:15 E 11 16.09 Fair CLR 17.1 2.8 39% 76.48 0.0
03 13:55 Calm 16.09 Fair CLR 16.1 2.6 16.5 3.4 41% 76.53 0.0
03 13:35 E 6 16.09 Fair CLR 15.7 1.9 40% 76.53 0.0
03 13:15 E 6 16.09 Fair CLR 14.9 1 39% 76.56 0.0
03 12:55 E 6 16.09 Fair CLR 14.4 0.9 40% 76.56 0.0
03 12:35 W 9 16.09 Fair CLR 14.2 1.1 41% 76.58 0.0
03 12:15 NW 7 16.09 Fair CLR 13.2 1.8 46% 76.58 0.0
03 11:55 SW 6 16.09 Fair CLR 13.3 2.2 47% 76.61 0.0
03 11:35 N 7 16.09 Fair CLR 12.7 1.9 48% 76.61 0.0
03 11:15 E 6 16.09 Fair CLR 12.6 2.1 49% 76.61 0.0
03 10:55 NW 7 16.09 Fair CLR 12.7 3.7 55% 76.63 0.0
03 10:35 E 7 16.09 Fair CLR 11.5 3.1 57% 76.61 0.0
03 10:15 NE 6 16.09 Fair CLR 11.1 3.2 59% 76.61 0.0
03 09:55 Calm 16.09 Fair CLR 9.9 3.7 66% 76.61 0.0
03 09:35 Calm 16.09 Fair CLR 8.6 3.6 71% 76.61 0.0
03 09:15 SE 6 16.09 Fair CLR 7.9 4 77% 76.61 0.0
03 08:35 Calm 16.09 Fair CLR 5.2 3.3 88% 76.61 0.0
03 08:15 Calm 16.09 Fair CLR 4 3.1 94% 76.61 0.0
03 07:55 Calm 16.09 Fair CLR 3.3 3.1 4.8 0.9 99% 76.61 0.0
03 07:35 Calm 11.27 Fair CLR 1.8 1.8 100% 76.58 0.0
03 07:15 Calm 11.27 Fair CLR 1.5 1.5 100% 76.56 0.0
03 06:35 Calm 8.05 Fog/Mist CLR 1.3 1.2 99% 76.5 0.0
03 06:15 Calm 16.09 Fair CLR 1.4 1.3 99% 76.48 0.0
03 05:55 Calm 16.09 Fair CLR 1.8 1.7 99% 76.45 0.0
03 05:35 Calm 16.09 Fair CLR 2 1.8 99% 76.45 0.0
03 05:15 Calm 16.09 Fair CLR 2.1 1.9 99% 76.45 0.0
03 04:55 Calm 16.09 Fair CLR 1.9 1.6 98% 76.43 0.0
03 04:35 Calm 16.09 Fair CLR 2.4 2.1 98% 76.43 0.0
03 04:15 Calm 16.09 Fair CLR 2.8 2.5 98% 76.4 0.0
03 03:55 Calm 16.09 Fair CLR 2.5 2 97% 76.4 0.0
03 03:35 Calm 16.09 Fair CLR 3.2 2.6 96% 76.38 0.0
03 03:15 Calm 16.09 Fair CLR 3.2 2.5 95% 76.38 0.0
03 02:55 Calm 16.09 Fair CLR 3.4 2.5 94% 76.38 0.0
03 02:35 Calm 16.09 Fair CLR 4.3 3 91% 76.35 0.0
03 02:15 Calm 16.09 Fair CLR 4.5 2.8 89% 76.35 0.0
03 01:55 W 6 16.09 Fair CLR 4.4 3.3 13.2 4.1 93% 76.35 0.0
03 01:35 S 6 16.09 Fair CLR 5.1 3 86% 76.35 0.0
03 01:15 S 6 16.09 Fair CLR 5.3 3.1 86% 76.35 0.0
03 00:55 Calm 16.09 Partly Cloudy SCT085 5.6 3.1 84% 76.35 0.0
03 00:35 Calm 16.09 Partly Cloudy SCT085 6.4 3.1 80% 76.35 0.0
03 00:15 S 6 16.09 Partly Cloudy SCT085 6.6 3.1 79% 76.35 0.0
02 23:55 S 6 16.09 Overcast SCT060 OVC085 7.2 3.3 77% 76.33 0.0
02 23:35 Calm 16.09 Overcast BKN060 OVC070 7.4 3.4 76% 76.33 0.0
02 23:15 S 6 16.09 Overcast SCT070 OVC085 7.1 3 75% 76.33 0.0
02 22:55 Calm 16.09 Overcast OVC085 7.6 2.8 72% 76.3 0.0
02 22:35 Calm 16.09 Mostly Cloudy BKN085 7.1 2.6 73% 76.3 0.0
02 22:15 S 7 16.09 Fair CLR 7.3 2 69% 6 76.25 0.0
02 21:55 Calm 16.09 Fair CLR 10.4 0.3 50% 76.25 0.0
02 21:35 W 6 16.09 Fair CLR 10.8 -0.2 47% 76.23 0.0
02 21:15 NW 6 16.09 Fair CLR 11.3 -0.4 45% 76.2 0.0
02 20:55 NW 7 16.09 Fair CLR 11.7 -0.3 44% 76.17 0.0
02 20:35 NW 11 16.09 Fair CLR 12.3 -0.9 40% 76.17 0.0
02 20:15 NW 11 16.09 Fair CLR 12.8 -1 39% 76.15 0.0
02 19:55 NW 9 16.09 Partly Cloudy SCT070 13.1 -0.8 17.9 13 39% 76.12 0.0
02 19:35 NW 7 16.09 Fair CLR 13.7 -1.5 35% 76.12 0.0
02 19:15 NW 9 16.09 Fair CLR 14.4 -1.2 34% 76.1 0.0
02 18:55 NW 13 16.09 Partly Cloudy SCT080 14.7 -1.3 34% 76.1 0.0
02 18:35 NW 13 16.09 Partly Cloudy SCT080 14.8 -0.8 35% 76.1 0.0
02 18:15 NW 15 G 28 16.09 Fair CLR 14.2 -1.7 34% 76.1 0.0
02 17:55 NW 9 G 31 16.09 Fair CLR 15.8 -1 32% 76.07 0.0
02 17:35 NW 13 G 28 16.09 Fair CLR 15.9 -1.8 30% 76.05 0.0
02 17:15 NW 11 16.09 Fair CLR 16.4 -1.9 29% 76.02 0.0
02 16:55 NW 11 G 30 16.09 Fair CLR 16.3 -1.6 30% 76.02 0.0
02 16:35 NW 13 G 37 16.09 Fair CLR 16.6 -1.2 30% 76.02 0.0
02 16:15 NW 9 11.27 Fair CLR 17.1 -1.6 28% 76 0.0
02 15:55 N 11 11.27 Fair with Haze CLR 17.7 -1.2 28% 76 0.0
02 15:35 NW 11 8.05 Fair with Haze CLR 16.8 -1.8 28% 76 0.0
02 15:15 N 11 11.27 Fair with Haze CLR 16.9 1.4 35% 76 0.0
02 14:55 N 11 8.05 Partly Cloudy with Haze SCT060 16.8 1.8 37% 76 0.0
02 14:35 N 17 11.27 Overcast OVC060 17.3 2.6 38% 76 0.0
02 14:15 NW 9 16.09 Overcast OVC050 16.5 3.5 42% 76 0.0
02 13:55 NW 7 16.09 Mostly Cloudy BKN050 BKN060 15.5 4.1 17.9 9.8 47% 76.02 0.0
02 13:35 NW 7 16.09 Mostly Cloudy SCT048 BKN060 17.3 6.9 51% 76.02 0.0
02 13:15 W 11 16.09 Overcast BKN046 OVC060 15.2 5.4 52% 76.05 0.0
02 12:55 N 9 16.09 Overcast OVC050 15.1 5.5 53% 76.07 0.0
02 12:35 N 6 16.09 Overcast SCT040 OVC060 14.9 5.5 54% 76.07 0.0
02 12:15 W 6 16.09 Overcast SCT040 OVC060 14.8 5.5 54% 76.07 0.0
02 11:55 NE 6 16.09 Overcast OVC070 15.2 7 58% 76.07 0.0
02 11:35 W 6 16.09 Overcast OVC060 14.2 6.5 60% 76.1 0.0
02 11:15 NW 6 16.09 Overcast OVC060 12.8 5.6 62% 76.1 0.0
02 10:55 N 7 16.09 Overcast OVC070 13.1 6.1 63% 76.1 0.0
02 10:35 NW 7 16.09 Mostly Cloudy BKN070 12.4 5.7 64% 76.07 0.0
02 10:15 N 6 16.09 Fair CLR 12 5.6 65% 76.07 0.0
02 09:55 Calm 16.09 Fair CLR 12 6.3 68% 76.07 0.0
02 09:35 Calm 16.09 Fair CLR 11.1 5.7 70% 76.07 0.0
02 09:15 S 6 16.09 Fair CLR 11.1 5.5 69% 76.02 0.0
02 08:55 SW 6 16.09 Partly Cloudy SCT120 10.5 5.5 71% 76.07 0.0
02 08:35 Calm 16.09 Partly Cloudy SCT120 10.2 5.5 73% 76.05 0.0
02 08:15 Calm 16.09 Mostly Cloudy BKN110 9.9 6 77% 76.05 0.0
02 07:55 Calm 16.09 Mostly Cloudy BKN120 9.8 6.5 12.4 9.1 80% 76.05 0.0
02 07:35 Calm 16.09 Mostly Cloudy BKN120 9.6 6.2 80% 76.05 0.0
02 07:15 Calm 16.09 Mostly Cloudy BKN120 9.4 6.1 80% 76.02 0.0
02 06:55 Calm 16.09 Overcast OVC120 9.3 6.4 82% 76.02 0.0
02 06:35 Calm 16.09 Overcast OVC120 9.5 6.2 80% 76 0.0
02 06:15 Calm 16.09 Overcast OVC120 9.7 6.6 81% 75.97 0.0
02 05:55 Calm 16.09 Mostly Cloudy BKN120 9.8 6.6 81% 76 0.0
02 05:35 Calm 16.09 Partly Cloudy SCT120 9.8 7.1 83% 76 0.0
02 05:15 Calm 16.09 Mostly Cloudy BKN120 9.9 6.5 80% 76 0.0
02 04:55 Calm 16.09 Fair CLR 10.2 6.8 80% 76 0.0
02 04:35 Calm 16.09 Partly Cloudy SCT120 10.4 6.9 79% 76 0.0
02 04:15 Calm 16.09 Partly Cloudy SCT120 10.5 6.5 77% 76.02 0.0
02 03:55 Calm 16.09 Mostly Cloudy BKN110 10.7 6.6 76% 76.02 0.0
02 03:15 Calm 16.09 Overcast OVC120 11 7.5 79% 76.05 0.0
02 02:55 Calm 16.09 Overcast OVC120 11.2 6.8 75% 76.02 0.0
02 02:35 SW 6 16.09 Overcast OVC120 11.6 6.9 73% 76.05 0.0
02 02:15 SW 6 16.09 Overcast OVC120 11.9 6.6 70% 76.07 0.0
02 01:55 NW 7 16.09 Overcast OVC120 12.4 6.3 15.3 11 67% 76.05 0.0
02 01:35 W 6 16.09 Mostly Cloudy BKN120 12.1 6.8 70% 76.07 0.0
02 01:15 Calm 16.09 Partly Cloudy SCT120 11.1 8.3 83% 76.07 0.0
02 00:55 Calm 16.09 Fair CLR 11.3 7.9 80% 76.07 0.0
02 00:35 Calm 16.09 Fair CLR 11.2 8.3 83% 76.1 0.0
02 00:15 Calm 16.09 Fair CLR 11.2 8.2 82% 76.12 0.0
01 23:55 Calm 16.09 Fair CLR 11.5 7.6 77% 76.1 0.0
01 23:35 Calm 16.09 Fair CLR 11.7 7.4 75% 76.1 0.0
01 23:15 Calm 16.09 Fair CLR 11.8 7.3 74% 76.12 0.0
01 22:55 Calm 16.09 Fair CLR 12.1 6.7 70% 76.12 0.0
01 22:35 Calm 16.09 Fair CLR 12.2 6.6 69% 76.12 0.0
01 22:15 Calm 16.09 Fair CLR 13.1 5.2 59% 76.12 0.0
01 21:55 Calm 16.09 Fair CLR 12.6 5.6 63% 76.12 0.0
01 21:35 Calm 16.09 Fair CLR 12.5 6.8 68% 76.07 0.0
01 21:15 Calm 16.09 Fair CLR 13 5.9 62% 76.07 0.0
01 20:55 S 6 16.09 Fair CLR 13.7 5.5 58% 76.05 0.0
Date Time (edt) Wind (kph) Vis. (km) Weather Sky Cond. Air Dwpt Max. Min. Relative Humidity Wind Chill (°C) Heat Index (°C) altimeter (cm) sea level (mb) 1 hr 3 hr 6 hr
6 hour
Temperature (ºC) Pressure Precipitation (cm)